Silver, Texas
Current Conditions -  °F | °C
As of 8:55 AM on Sunday 21 Dec 2014 (Local Time) from KSWW Reporting Station
Broken Clouds Broken Clouds  
Wind Chill: 50°   Ceiling: 1600
Heat Index: 50°   Visibility: 10mi
Dew Point: 44°   Wind: 20mph
Humidity: 78%   Direction: 190°S
Pressure: 29.99"   Gusts: 23mph
Location:  32.07°N, 100.68°W
Report Text: KSWW 211455Z AUTO 19017G20KT 10SM BKN016 10/06 A2999 RMK AO2 T01000064
Loading
Personal Weather Stations






























Interactive Weather Map New forecast layout! Learn more

10-Day Weather Forecast

Advertisements
Track Severe Weather on mobile